Time;durP1;ratioP1;P1;durP2;ratioP2;P2;SDS_P1;SDS_P2;PMS_P1;PMS_P2;Temp;Humidity;BMP_temperature;BMP_pressure;BME280_temperature;BME280_humidity;BME280_pressure;Samples;Min_cycle;Max_cycle;Signal;HPM_P1;HPM_P2
2022/12/16 00:01:27;;;;;;;152.23;46.50;;;-4.30;99.90;;;;;;5020207;28;20221;-86
2022/12/16 00:03:54;;;;;;;160.97;41.43;;;-4.30;99.90;;;;;;5020183;28;20534;-86
2022/12/16 00:06:22;;;;;;;153.80;45.97;;;-4.30;99.90;;;;;;5018902;28;20455;-86
2022/12/16 00:08:47;;;;;;;144.20;47.03;;;-4.30;99.90;;;;;;5019119;28;20162;-86
2022/12/16 00:11:13;;;;;;;154.10;48.80;;;-4.30;99.90;;;;;;5018292;28;20193;-86
2022/12/16 00:13:40;;;;;;;143.23;42.95;;;-4.30;99.90;;;;;;5019053;28;20413;-86
2022/12/16 00:16:17;;;;;;;151.15;43.83;;;-4.30;99.90;;;;;;5018558;28;20174;-86
2022/12/16 00:18:43;;;;;;;150.02;44.55;;;-4.30;99.90;;;;;;5018960;28;20181;-86
2022/12/16 00:21:08;;;;;;;164.00;44.83;;;-4.40;99.90;;;;;;5020532;28;20273;-86
2022/12/16 00:23:35;;;;;;;153.70;42.10;;;-4.40;99.90;;;;;;5021118;28;20194;-86
2022/12/16 00:26:01;;;;;;;172.70;45.65;;;-4.40;99.90;;;;;;5022666;28;20196;-86
2022/12/16 00:28:27;;;;;;;142.65;46.20;;;-4.50;99.90;;;;;;5021652;28;20166;-86
2022/12/16 00:30:54;;;;;;;158.53;44.60;;;-4.50;99.90;;;;;;5023471;28;20194;-86
2022/12/16 00:33:22;;;;;;;137.10;38.78;;;-4.60;99.90;;;;;;5022789;28;20404;-86
2022/12/16 00:35:48;;;;;;;162.32;43.22;;;-4.60;99.90;;;;;;5021932;28;20264;-86
2022/12/16 00:38:15;;;;;;;150.63;45.70;;;-4.60;99.90;;;;;;5023136;28;20174;-85
2022/12/16 00:40:41;;;;;;;145.93;42.35;;;-4.60;99.90;;;;;;5022340;28;20269;-86
2022/12/16 00:43:07;;;;;;;155.10;45.80;;;-4.60;99.90;;;;;;5021721;28;20181;-86
2022/12/16 00:45:33;;;;;;;139.80;44.88;;;-4.50;99.90;;;;;;5022510;28;20205;-85
2022/12/16 00:47:59;;;;;;;147.30;43.80;;;-4.50;99.90;;;;;;5021408;28;20177;-86
2022/12/16 00:50:25;;;;;;;138.07;39.60;;;-4.50;99.90;;;;;;5021216;28;20198;-85
2022/12/16 00:52:54;;;;;;;136.15;38.60;;;-4.70;99.90;;;;;;5022281;28;20162;-86
2022/12/16 00:55:19;;;;;;;137.98;40.75;;;-4.80;99.90;;;;;;5022734;28;20170;-86
2022/12/16 00:57:48;;;;;;;147.83;43.50;;;-4.90;99.90;;;;;;5020882;28;20176;-85
2022/12/16 01:00:15;;;;;;;150.90;41.55;;;-5.00;99.90;;;;;;5021091;28;20429;-85
2022/12/16 01:02:43;;;;;;;143.18;39.50;;;-5.00;99.90;;;;;;5022215;28;20166;-85
2022/12/16 01:05:11;;;;;;;148.00;39.10;;;-5.10;99.90;;;;;;5020906;28;20198;-85
2022/12/16 01:07:37;;;;;;;143.93;38.38;;;-5.00;99.90;;;;;;5021093;28;20170;-86
2022/12/16 01:10:05;;;;;;;136.93;38.90;;;-5.10;99.90;;;;;;5020773;28;20663;-86
2022/12/16 01:12:31;;;;;;;140.93;42.30;;;-5.10;99.90;;;;;;5019662;28;20197;-85
2022/12/16 01:14:57;;;;;;;147.43;40.22;;;-5.30;99.90;;;;;;5020540;28;20665;-86
2022/12/16 01:17:24;;;;;;;178.07;41.35;;;-5.30;99.90;;;;;;5021583;28;20178;-85
2022/12/16 01:19:51;;;;;;;136.50;37.35;;;-5.20;99.90;;;;;;5020523;28;20672;-85
2022/12/16 01:22:17;;;;;;;122.97;37.28;;;-5.20;99.90;;;;;;5020384;28;20213;-86
2022/12/16 01:24:43;;;;;;;141.27;37.35;;;-5.30;99.90;;;;;;5020179;28;20170;-85
2022/12/16 01:27:10;;;;;;;135.85;34.90;;;-5.30;99.90;;;;;;5020251;28;20196;-86
2022/12/16 01:29:35;;;;;;;135.43;37.28;;;-5.30;99.90;;;;;;5020371;28;20188;-85
2022/12/16 01:32:01;;;;;;;135.53;39.07;;;-5.30;99.90;;;;;;5021150;28;20256;-85
2022/12/16 01:34:27;;;;;;;130.77;37.28;;;-5.30;99.90;;;;;;5003394;28;20181;-85
2022/12/16 01:36:53;;;;;;;127.73;35.30;;;-5.30;99.90;;;;;;5019483;28;20170;-85
2022/12/16 01:39:18;;;;;;;149.43;33.47;;;-5.30;99.90;;;;;;5020553;28;20174;-85
2022/12/16 01:41:44;;;;;;;123.23;36.03;;;-5.20;99.90;;;;;;5019617;28;20596;-85
2022/12/16 01:44:22;;;;;;;130.17;36.57;;;-5.30;99.90;;;;;;5019337;28;20173;-85
2022/12/16 01:47:04;;;;;;;124.40;35.95;;;-5.30;99.90;;;;;;5019126;28;20197;-85
2022/12/16 01:49:35;;;;;;;143.60;35.63;;;-5.30;99.90;;;;;;5020203;28;20150;-85
2022/12/16 01:52:04;;;;;;;145.75;35.17;;;-5.30;99.90;;;;;;5025685;28;20190;-86
2022/12/16 01:54:58;;;;;;;133.15;33.58;;;-5.30;99.90;;;;;;5024239;28;20166;-86
2022/12/16 01:57:32;;;;;;;129.50;33.40;;;-5.30;99.90;;;;;;5017429;28;20311;-86
2022/12/16 02:00:00;;;;;;;130.85;34.00;;;-5.40;99.90;;;;;;5022032;28;20231;-85
2022/12/16 02:02:26;;;;;;;155.25;35.95;;;-5.30;99.90;;;;;;5021631;28;20166;-85
2022/12/16 02:07:37;;;;;;;135.68;32.50;;;-5.20;99.90;;;;;;5022436;28;20240;-86
2022/12/16 02:10:03;;;;;;;138.53;35.70;;;-5.20;99.90;;;;;;5021051;28;20158;-86
2022/12/16 02:12:42;;;;;;;139.13;37.75;;;-5.20;99.90;;;;;;5021708;28;20545;-86
2022/12/16 02:15:28;;;;;;;136.57;36.97;;;-5.30;99.90;;;;;;5021204;28;20225;-86
2022/12/16 02:18:18;;;;;;;131.77;34.28;;;-5.20;99.90;;;;;;5012803;28;20181;-85
2022/12/16 02:21:04;;;;;;;126.80;34.85;;;-5.20;99.90;;;;;;5020865;28;20189;-85
2022/12/16 02:23:56;;;;;;;139.25;33.65;;;-5.20;99.90;;;;;;5021166;28;20236;-86
2022/12/16 02:26:33;;;;;;;120.28;34.35;;;-5.20;99.90;;;;;;5021229;28;20197;-86
2022/12/16 02:29:36;;;;;;;128.60;33.58;;;-5.10;99.90;;;;;;5019267;28;20193;-85
2022/12/16 02:32:16;;;;;;;144.52;37.85;;;-5.10;99.90;;;;;;5020588;28;20571;-86
2022/12/16 02:34:59;;;;;;;131.13;35.50;;;-5.20;99.90;;;;;;5020410;28;20154;-86
2022/12/16 02:37:41;;;;;;;129.10;33.60;;;-5.10;99.90;;;;;;5020891;28;20185;-86
2022/12/16 02:40:25;;;;;;;128.73;34.60;;;-5.20;99.90;;;;;;5020887;28;20154;-86
2022/12/16 02:43:07;;;;;;;126.82;33.92;;;-5.30;99.90;;;;;;5019723;28;20154;-85
2022/12/16 02:45:35;;;;;;;148.43;35.00;;;-5.30;99.90;;;;;;5019210;28;20194;-85
2022/12/16 02:48:00;;;;;;;154.30;34.80;;;-5.20;99.90;;;;;;5018997;28;20173;-86
2022/12/16 02:50:38;;;;;;;135.77;33.57;;;-5.30;99.90;;;;;;5018529;28;20190;-85
2022/12/16 02:53:06;;;;;;;130.77;36.47;;;-5.30;99.90;;;;;;5018767;28;20166;-85
2022/12/16 02:55:38;;;;;;;138.15;38.20;;;-5.30;99.90;;;;;;5020004;28;20273;-85
2022/12/16 02:58:07;;;;;;;126.40;34.15;;;-5.40;99.90;;;;;;5019888;28;20155;-86
2022/12/16 03:00:46;;;;;;;125.50;35.22;;;-5.30;99.90;;;;;;5019522;28;20201;-85
2022/12/16 03:03:32;;;;;;;127.63;39.10;;;-5.40;99.90;;;;;;5018493;28;20161;-85
2022/12/16 03:06:00;;;;;;;135.75;36.40;;;-5.30;99.90;;;;;;5020134;28;20264;-86
2022/12/16 03:08:34;;;;;;;126.45;31.40;;;-5.30;99.90;;;;;;5020449;28;20162;-86
2022/12/16 03:11:02;;;;;;;120.63;34.78;;;-5.30;99.90;;;;;;5020067;28;20212;-85
2022/12/16 03:13:42;;;;;;;127.63;36.40;;;-5.30;99.90;;;;;;5019813;28;20158;-85
2022/12/16 03:16:11;;;;;;;127.80;34.60;;;-5.20;99.90;;;;;;5019132;28;20184;-86
2022/12/16 03:18:41;;;;;;;146.40;36.10;;;-5.30;99.90;;;;;;5020016;28;20170;-85
2022/12/16 03:21:08;;;;;;;153.63;40.47;;;-5.30;99.90;;;;;;5018209;28;20271;-85
2022/12/16 03:23:52;;;;;;;133.80;37.05;;;-5.30;99.90;;;;;;5019971;28;20166;-86
2022/12/16 03:26:24;;;;;;;141.98;38.65;;;-5.40;99.90;;;;;;5018374;28;20197;-86
2022/12/16 03:29:15;;;;;;;130.57;37.47;;;-5.40;99.90;;;;;;5017947;28;20301;-85
2022/12/16 03:31:46;;;;;;;123.35;36.50;;;-5.30;99.90;;;;;;5018519;28;20189;-86
2022/12/16 03:34:50;;;;;;;142.05;37.28;;;-5.40;99.90;;;;;;5019502;28;20157;-85
2022/12/16 03:37:19;;;;;;;151.23;37.78;;;-5.40;99.90;;;;;;5019170;28;20266;-86
2022/12/16 03:39:51;;;;;;;125.75;37.13;;;-5.40;99.90;;;;;;5018392;28;20181;-85
2022/12/16 03:42:17;;;;;;;136.27;32.60;;;-5.50;99.90;;;;;;5018682;28;20593;-86
2022/12/16 03:44:45;;;;;;;125.57;35.10;;;-5.50;99.90;;;;;;5017975;28;20170;-85
2022/12/16 03:47:11;;;;;;;134.15;37.55;;;-5.50;99.90;;;;;;5018353;28;20415;-85
2022/12/16 03:49:37;;;;;;;137.35;37.22;;;-5.40;99.90;;;;;;5019441;28;20517;-85
2022/12/16 03:52:03;;;;;;;137.80;36.78;;;-5.50;99.90;;;;;;5019250;28;20232;-86
2022/12/16 03:54:29;;;;;;;132.40;36.03;;;-5.50;99.90;;;;;;5019025;28;20196;-86
2022/12/16 03:56:55;;;;;;;131.80;39.38;;;-5.50;99.90;;;;;;5018884;28;20265;-85
2022/12/16 03:59:21;;;;;;;133.70;38.30;;;-5.40;99.90;;;;;;5023090;28;20245;-86
2022/12/16 04:01:47;;;;;;;127.10;36.90;;;-5.40;99.90;;;;;;5023441;28;20429;-86
2022/12/16 04:04:12;;;;;;;133.20;37.00;;;-5.40;99.90;;;;;;5023481;28;20226;-85
2022/12/16 04:06:38;;;;;;;138.87;38.90;;;-5.40;99.90;;;;;;5022484;28;20604;-85
2022/12/16 04:09:04;;;;;;;122.77;39.27;;;-5.40;99.90;;;;;;5022569;28;20413;-85
2022/12/16 04:25:34;;;;;;;119.28;36.50;;;-5.50;99.90;;;;;;5023453;28;20193;-85
2022/12/16 04:28:00;;;;;;;129.45;40.97;;;-5.50;99.90;;;;;;5021360;28;20186;-86
2022/12/16 04:30:27;;;;;;;132.60;34.63;;;-5.60;99.90;;;;;;5021979;28;20198;-86
